createdAt,value
2023-01-20T00:04:50.643Z,62.55
2023-01-20T00:07:20.824Z,74.40
2023-01-20T00:09:47.775Z,64.88
2023-01-20T00:12:14.678Z,50.03
2023-01-20T00:14:46.581Z,48.90
2023-01-20T00:17:19.053Z,65.65
2023-01-20T00:19:46.422Z,56.78
2023-01-20T00:22:13.847Z,65.78
2023-01-20T00:24:42.511Z,60.45
2023-01-20T00:27:11.223Z,56.63
2023-01-20T00:29:40.589Z,56.50
2023-01-20T00:32:09.704Z,55.45
2023-01-20T00:34:38.289Z,62.50
2023-01-20T00:37:05.907Z,55.22
2023-01-20T00:39:33.351Z,58.03
2023-01-20T00:42:01.117Z,89.43
2023-01-20T00:44:28.484Z,59.92
2023-01-20T00:46:55.990Z,56.92
2023-01-20T00:49:25.410Z,51.03
2023-01-20T00:51:52.704Z,51.85
2023-01-20T00:54:19.943Z,52.05
2023-01-20T00:56:49.093Z,51.65
2023-01-20T00:59:17.965Z,50.95
2023-01-20T01:01:46.405Z,57.88
2023-01-20T01:04:19.202Z,53.65
2023-01-20T01:06:46.145Z,52.03
2023-01-20T01:09:13.912Z,58.05
2023-01-20T01:11:40.872Z,59.13
2023-01-20T01:14:10.229Z,51.80
2023-01-20T01:16:37.194Z,46.13
2023-01-20T01:19:04.663Z,47.28
2023-01-20T01:21:31.605Z,57.45
2023-01-20T01:23:59.001Z,57.30
2023-01-20T01:26:26.931Z,47.67
2023-01-20T01:28:54.792Z,53.40
2023-01-20T01:31:24.441Z,51.78
2023-01-20T01:33:51.880Z,58.05
2023-01-20T01:36:20.832Z,52.80
2023-01-20T01:38:57.285Z,61.28
2023-01-20T01:41:25.879Z,57.78
2023-01-20T01:44:08.167Z,65.95
2023-01-20T01:46:37.393Z,60.53
2023-01-20T01:49:20.759Z,52.22
2023-01-20T01:52:03.502Z,58.65
2023-01-20T01:54:36.206Z,65.65
2023-01-20T01:57:10.112Z,53.47
2023-01-20T01:59:42.168Z,62.80
2023-01-20T02:02:09.955Z,59.20
2023-01-20T02:04:39.066Z,59.85
2023-01-20T02:07:13.405Z,53.25
2023-01-20T02:09:42.133Z,64.75
2023-01-20T02:12:15.210Z,53.00
2023-01-20T02:14:51.168Z,60.97
2023-01-20T02:17:29.886Z,56.53
2023-01-20T02:20:20.955Z,56.28
2023-01-20T02:23:06.704Z,61.03
2023-01-20T02:26:11.481Z,54.45
2023-01-20T02:29:06.523Z,52.65
2023-01-20T02:32:12.209Z,50.75
2023-01-20T02:34:54.954Z,54.75
2023-01-20T02:37:56.539Z,50.30
2023-01-20T02:40:23.873Z,63.58
2023-01-20T02:43:02.556Z,57.50
2023-01-20T02:45:39.847Z,54.35
2023-01-20T02:48:29.620Z,56.88
2023-01-20T02:51:00.939Z,57.00
2023-01-20T02:53:40.827Z,52.45
2023-01-20T02:56:10.201Z,51.83
2023-01-20T02:58:50.444Z,50.58
2023-01-20T03:01:24.768Z,60.35
2023-01-20T03:04:04.628Z,55.88
2023-01-20T03:06:36.171Z,49.30
2023-01-20T03:09:10.887Z,55.67
2023-01-20T03:11:44.185Z,54.15
2023-01-20T03:14:13.647Z,54.95
2023-01-20T03:16:44.545Z,58.53
2023-01-20T03:19:12.047Z,53.60
2023-01-20T03:21:39.145Z,55.15
2023-01-20T03:24:09.065Z,53.33
2023-01-20T03:26:35.983Z,53.50
2023-01-20T03:29:08.664Z,56.80
2023-01-20T03:31:44.827Z,61.10
2023-01-20T03:34:16.028Z,55.92
2023-01-20T03:36:44.760Z,60.65
2023-01-20T03:39:13.248Z,59.00
2023-01-20T03:42:03.617Z,63.08
2023-01-20T03:45:08.773Z,66.70
2023-01-20T03:47:51.105Z,63.13
2023-01-20T03:50:32.446Z,60.60
2023-01-20T03:53:16.480Z,61.85
2023-01-20T03:55:46.300Z,75.47
2023-01-20T03:58:20.829Z,72.70
2023-01-20T04:00:51.207Z,59.28
2023-01-20T04:03:30.022Z,64.22
2023-01-20T04:06:01.481Z,67.40
2023-01-20T04:08:44.897Z,61.17
2023-01-20T04:11:11.989Z,77.20
2023-01-20T04:13:40.173Z,63.97
2023-01-20T04:16:15.405Z,71.63
2023-01-20T04:18:45.558Z,67.93
2023-01-20T04:21:19.989Z,62.33
2023-01-20T04:23:56.751Z,73.15
2023-01-20T04:26:24.461Z,68.10
2023-01-20T04:28:51.977Z,76.68
2023-01-20T04:31:29.970Z,69.55
2023-01-20T04:34:00.942Z,80.03
2023-01-20T04:36:28.902Z,75.18
2023-01-20T04:38:56.252Z,68.65
2023-01-20T04:41:25.628Z,78.30
2023-01-20T04:43:52.541Z,77.30
2023-01-20T04:46:19.624Z,86.35
2023-01-20T04:48:46.627Z,74.45
2023-01-20T04:51:14.445Z,87.20
2023-01-20T04:53:42.845Z,82.47
2023-01-20T04:56:14.715Z,89.10
2023-01-20T04:58:42.772Z,80.05
2023-01-20T05:01:09.920Z,79.43
2023-01-20T05:03:38.339Z,79.90
2023-01-20T05:06:09.109Z,84.72
2023-01-20T05:08:36.833Z,84.60
2023-01-20T05:11:04.343Z,85.65
2023-01-20T05:13:31.934Z,90.78
2023-01-20T05:16:02.867Z,93.97
2023-01-20T05:18:30.601Z,86.32
2023-01-20T05:20:57.560Z,79.50
2023-01-20T05:23:25.994Z,82.28
2023-01-20T05:28:38.289Z,73.22
2023-01-20T05:31:07.608Z,73.05
2023-01-20T05:33:38.024Z,77.35
2023-01-20T05:36:09.376Z,64.60
2023-01-20T05:38:37.583Z,72.03
2023-01-20T05:41:17.323Z,92.63
2023-01-20T05:43:44.315Z,111.30
2023-01-20T05:46:11.860Z,84.68
2023-01-20T05:48:39.319Z,75.65
2023-01-20T05:56:38.348Z,63.30
2023-01-20T06:01:50.603Z,57.78
2023-01-20T06:04:20.249Z,56.60
2023-01-20T06:06:47.457Z,66.40
2023-01-20T06:09:18.924Z,61.40
2023-01-20T06:11:52.807Z,64.55
2023-01-20T06:14:20.499Z,66.80
2023-01-20T06:16:47.713Z,80.93
2023-01-20T06:19:15.784Z,74.90
2023-01-20T06:21:46.837Z,59.85
2023-01-20T06:24:14.845Z,68.05
2023-01-20T06:26:43.353Z,66.20
2023-01-20T06:29:10.296Z,60.15
2023-01-20T06:31:37.404Z,67.47
2023-01-20T06:34:05.801Z,71.13
2023-01-20T06:36:34.635Z,62.80
2023-01-20T06:39:02.255Z,70.90
2023-01-20T06:41:30.528Z,69.63
2023-01-20T06:43:59.276Z,72.45
2023-01-20T06:46:27.633Z,71.30
2023-01-20T06:49:01.487Z,68.28
2023-01-20T06:51:50.607Z,80.60
2023-01-20T06:54:20.535Z,68.85
2023-01-20T06:56:50.698Z,66.70
2023-01-20T06:59:23.405Z,66.57
2023-01-20T07:01:53.831Z,68.95
2023-01-20T07:04:20.752Z,76.03
2023-01-20T07:06:48.430Z,71.55
2023-01-20T07:09:15.519Z,96.30
2023-01-20T07:11:44.004Z,72.10
2023-01-20T07:14:10.840Z,76.35
2023-01-20T07:16:38.279Z,84.72
2023-01-20T07:19:07.001Z,88.43
2023-01-20T07:21:35.011Z,75.13
2023-01-20T07:24:03.516Z,85.25
2023-01-20T07:26:31.000Z,77.05
2023-01-20T07:29:02.607Z,69.38
2023-01-20T07:31:32.030Z,73.60
2023-01-20T07:34:01.562Z,74.60
2023-01-20T07:36:29.034Z,79.60
2023-01-20T07:38:58.867Z,72.43
2023-01-20T07:41:25.765Z,75.95
2023-01-20T07:43:54.020Z,97.13
2023-01-20T07:46:22.167Z,81.00
2023-01-20T07:48:50.184Z,83.63
2023-01-20T07:51:19.566Z,97.88
2023-01-20T07:53:49.492Z,76.45
2023-01-20T07:56:19.597Z,69.70
2023-01-20T07:58:50.922Z,70.82
2023-01-20T08:01:27.834Z,73.93
2023-01-20T08:03:57.286Z,67.45
2023-01-20T08:06:26.564Z,67.32
2023-01-20T08:08:54.509Z,60.75
2023-01-20T08:11:25.023Z,69.72
2023-01-20T08:13:56.816Z,65.85
2023-01-20T08:16:24.662Z,69.88
2023-01-20T08:18:54.284Z,69.45
2023-01-20T08:21:28.029Z,66.07
2023-01-20T08:24:07.239Z,69.90
2023-01-20T08:26:36.104Z,63.65
2023-01-20T08:29:08.035Z,63.85
2023-01-20T08:31:36.226Z,65.10
2023-01-20T08:34:04.392Z,66.85
2023-01-20T08:36:35.870Z,67.10
2023-01-20T08:39:09.923Z,58.83
2023-01-20T08:41:41.998Z,68.75
2023-01-20T08:44:11.569Z,60.88
2023-01-20T08:47:04.217Z,66.15
2023-01-20T08:49:31.488Z,57.65
2023-01-20T08:52:06.795Z,55.08
2023-01-20T08:57:19.294Z,53.15
2023-01-20T08:59:48.558Z,56.28
2023-01-20T09:02:20.828Z,43.58
2023-01-20T09:04:56.256Z,48.72
2023-01-20T09:07:24.674Z,48.22
2023-01-20T09:09:53.558Z,41.03
2023-01-20T09:12:25.535Z,39.63
2023-01-20T09:14:55.940Z,45.22
2023-01-20T09:17:26.870Z,43.03
2023-01-20T09:19:55.224Z,41.28
2023-01-20T09:22:22.666Z,36.88
2023-01-20T09:24:52.509Z,41.00
2023-01-20T09:27:20.216Z,40.42
2023-01-20T09:29:51.886Z,52.45
2023-01-20T09:32:20.451Z,36.50
2023-01-20T09:34:50.670Z,38.05
2023-01-20T09:37:37.440Z,39.17
2023-01-20T09:40:25.383Z,50.38
2023-01-20T09:43:17.032Z,41.88
2023-01-20T09:46:24.298Z,43.65
2023-01-20T09:49:22.749Z,46.22
2023-01-20T09:52:27.475Z,41.55
2023-01-20T09:55:28.229Z,45.00
2023-01-20T09:58:20.759Z,31.48
2023-01-20T10:01:02.981Z,44.78
2023-01-20T10:03:48.150Z,29.10
2023-01-20T10:06:20.674Z,34.95
2023-01-20T10:09:28.560Z,26.70
2023-01-20T10:12:24.467Z,33.45
2023-01-20T10:15:00.489Z,40.15
2023-01-20T10:17:45.622Z,26.88
2023-01-20T10:20:23.320Z,30.90
2023-01-20T10:23:21.641Z,27.98
2023-01-20T10:26:23.512Z,33.38
2023-01-20T10:29:03.319Z,33.00
2023-01-20T10:31:38.097Z,26.83
2023-01-20T10:34:20.565Z,32.10
2023-01-20T10:36:56.364Z,26.00
2023-01-20T10:39:50.253Z,23.13
2023-01-20T10:42:18.788Z,27.15
2023-01-20T10:44:51.664Z,23.45
2023-01-20T10:47:29.728Z,29.98
2023-01-20T10:50:23.301Z,26.10
2023-01-20T10:53:34.397Z,27.25
2023-01-20T10:56:53.864Z,24.67
2023-01-20T10:59:36.143Z,24.25
2023-01-20T11:02:17.305Z,28.08
2023-01-20T11:04:49.952Z,26.13
2023-01-20T11:07:19.738Z,24.27
2023-01-20T11:09:49.046Z,27.83
2023-01-20T11:12:31.136Z,31.30
2023-01-20T11:15:00.963Z,40.22
2023-01-20T11:17:35.483Z,30.13
2023-01-20T11:20:11.402Z,33.55
2023-01-20T11:22:49.429Z,44.90
2023-01-20T11:25:27.900Z,31.90
2023-01-20T11:28:40.922Z,29.30
2023-01-20T11:31:10.692Z,33.17
2023-01-20T11:33:38.070Z,31.70
2023-01-20T11:36:19.157Z,33.80
2023-01-20T11:38:52.089Z,27.55
2023-01-20T11:41:26.517Z,26.08
2023-01-20T11:44:11.610Z,28.02
2023-01-20T11:46:39.031Z,21.60
2023-01-20T11:49:19.265Z,27.58
2023-01-20T11:51:59.370Z,20.55
2023-01-20T11:54:30.742Z,21.85
2023-01-20T11:57:05.662Z,22.40
2023-01-20T11:59:36.807Z,21.27
2023-01-20T12:05:23.201Z,25.45
2023-01-20T12:07:53.817Z,24.77
2023-01-20T12:13:15.673Z,25.30
2023-01-20T12:18:13.108Z,20.60
2023-01-20T12:20:56.781Z,23.27
2023-01-20T12:23:58.836Z,27.45
2023-01-20T12:26:29.708Z,24.73
2023-01-20T12:29:18.791Z,29.42
2023-01-20T12:31:49.582Z,22.45
2023-01-20T12:37:12.612Z,26.45
2023-01-20T12:40:01.896Z,27.48
2023-01-20T12:45:47.343Z,31.75
2023-01-20T12:48:54.198Z,25.40
2023-01-20T12:51:37.816Z,22.05
2023-01-20T12:54:47.902Z,27.98
2023-01-20T12:57:28.036Z,25.55
2023-01-20T13:19:38.967Z,43.97
2023-01-20T13:22:20.746Z,40.85
2023-01-20T13:27:33.803Z,44.95
2023-01-20T13:30:04.602Z,51.47
2023-01-20T13:32:35.904Z,45.17
2023-01-20T13:35:22.799Z,33.38
2023-01-20T13:37:49.770Z,27.80
2023-01-20T13:40:39.753Z,22.02
2023-01-20T13:43:25.554Z,19.23
2023-01-20T13:49:13.223Z,23.80
2023-01-20T13:51:46.956Z,22.25
2023-01-20T14:04:48.969Z,31.77
2023-01-20T14:07:27.057Z,31.10
2023-01-20T14:12:29.372Z,37.55
2023-01-20T14:14:56.581Z,26.75
2023-01-20T14:17:27.144Z,34.42
2023-01-20T14:19:58.774Z,40.78
2023-01-20T14:22:28.752Z,30.30
2023-01-20T14:25:01.085Z,37.05
2023-01-20T14:30:21.606Z,30.00
2023-01-20T14:43:33.332Z,30.08
2023-01-20T14:46:00.985Z,29.02
2023-01-20T14:48:34.904Z,26.52
2023-01-20T14:51:04.771Z,26.58
2023-01-20T15:06:53.712Z,26.25
2023-01-20T15:09:34.888Z,27.73
2023-01-20T15:12:38.264Z,29.75
2023-01-20T15:15:25.252Z,26.63
2023-01-20T15:18:13.615Z,21.98
2023-01-20T15:20:48.065Z,31.50
2023-01-20T15:23:43.096Z,31.60
2023-01-20T15:26:24.354Z,31.70
2023-01-20T15:28:57.415Z,28.05
2023-01-20T15:31:27.886Z,29.55
2023-01-20T15:34:04.800Z,33.88
2023-01-20T15:36:43.307Z,34.20
2023-01-20T15:42:05.717Z,30.33
2023-01-20T15:47:18.701Z,38.70
2023-01-20T15:49:48.918Z,37.88
2023-01-20T15:52:19.355Z,36.38
2023-01-20T15:54:59.455Z,35.10
2023-01-20T15:57:33.508Z,40.22
2023-01-20T16:02:36.903Z,38.60
2023-01-20T16:07:48.717Z,36.05
2023-01-20T16:10:20.046Z,42.05
2023-01-20T16:12:47.991Z,44.85
2023-01-20T16:15:21.985Z,40.60
2023-01-20T16:20:40.524Z,49.53
2023-01-20T16:25:45.446Z,46.13
2023-01-20T16:28:20.906Z,45.50
2023-01-20T16:31:11.802Z,57.42
2023-01-20T16:33:42.511Z,53.42
2023-01-20T16:36:17.579Z,44.90
2023-01-20T16:57:39.114Z,58.80
2023-01-20T17:00:13.258Z,48.45
2023-01-20T17:02:41.516Z,48.65
2023-01-20T17:10:32.810Z,62.85
2023-01-20T17:13:00.144Z,58.83
2023-01-20T17:31:37.855Z,60.03
2023-01-20T17:39:27.592Z,73.68
2023-01-20T17:42:01.136Z,67.43
2023-01-20T17:44:30.811Z,70.28
2023-01-20T18:00:22.700Z,69.88
2023-01-20T18:05:37.608Z,76.15
2023-01-20T18:27:27.662Z,89.22
2023-01-20T18:54:15.717Z,75.57
2023-01-20T18:59:23.809Z,77.35
2023-01-20T19:09:53.585Z,78.18
2023-01-20T19:12:33.398Z,87.53
2023-01-20T19:15:01.589Z,91.00
2023-01-20T19:17:38.234Z,89.35
2023-01-20T19:20:20.157Z,79.15
2023-01-20T19:33:45.287Z,93.32
2023-01-20T19:41:35.051Z,101.43
2023-01-20T20:00:05.752Z,79.47
2023-01-20T20:02:35.198Z,101.53
2023-01-20T20:05:02.975Z,87.38
2023-01-20T20:07:32.495Z,93.55
2023-01-20T20:10:03.320Z,100.05
2023-01-20T20:12:31.629Z,94.78
2023-01-20T20:15:13.027Z,97.95
2023-01-20T20:17:48.007Z,97.28
2023-01-20T20:20:19.753Z,110.43
2023-01-20T20:22:50.851Z,106.25
2023-01-20T20:25:24.463Z,104.65
2023-01-20T20:27:54.685Z,103.63
2023-01-20T20:30:21.700Z,100.82
2023-01-20T20:32:51.436Z,100.22
2023-01-20T20:35:27.162Z,104.43
2023-01-20T20:37:54.820Z,107.43
2023-01-20T20:43:06.008Z,113.90
2023-01-20T20:48:19.954Z,104.22
2023-01-20T20:53:24.364Z,128.20
2023-01-20T20:58:32.126Z,132.63
2023-01-20T21:01:07.246Z,116.97
2023-01-20T21:06:38.923Z,124.95
2023-01-20T21:09:10.501Z,124.85
2023-01-20T21:17:12.934Z,110.38
2023-01-20T21:22:26.981Z,137.55
2023-01-20T21:25:02.062Z,124.78
2023-01-20T21:30:21.903Z,122.93
2023-01-20T21:32:52.136Z,137.18
2023-01-20T21:35:20.059Z,123.80
2023-01-20T21:40:34.793Z,134.35
2023-01-20T21:43:22.480Z,131.63
2023-01-20T21:45:57.620Z,132.18
2023-01-20T21:48:43.727Z,111.30
2023-01-20T21:51:29.545Z,112.72
2023-01-20T21:53:58.653Z,99.20
2023-01-20T21:56:26.275Z,95.05
2023-01-20T21:58:56.825Z,88.25
2023-01-20T22:01:25.556Z,83.00
2023-01-20T22:03:58.959Z,106.50
2023-01-20T22:06:26.119Z,78.22
2023-01-20T22:11:35.067Z,103.75
2023-01-20T22:14:04.059Z,82.55
2023-01-20T22:16:33.055Z,95.78
2023-01-20T22:19:00.919Z,116.40
2023-01-20T22:21:28.741Z,94.68
2023-01-20T22:23:58.310Z,101.70
2023-01-20T22:26:26.104Z,96.93
2023-01-20T22:28:53.375Z,83.63
2023-01-20T22:31:24.991Z,103.95
2023-01-20T22:34:09.884Z,109.68
2023-01-20T22:36:37.378Z,106.15
2023-01-20T22:39:07.285Z,109.80
2023-01-20T22:41:36.501Z,104.78
2023-01-20T22:44:05.718Z,116.35
2023-01-20T22:46:34.637Z,114.80
2023-01-20T22:49:02.636Z,104.55
2023-01-20T22:51:32.741Z,109.32
2023-01-20T22:54:01.551Z,133.15
2023-01-20T22:56:32.591Z,122.80
2023-01-20T22:59:07.933Z,113.13
2023-01-20T23:01:38.814Z,124.55
2023-01-20T23:04:15.823Z,112.55
2023-01-20T23:06:46.239Z,108.38
2023-01-20T23:09:14.659Z,112.60
2023-01-20T23:11:42.675Z,110.10
2023-01-20T23:14:13.858Z,106.97
2023-01-20T23:16:46.327Z,97.93
2023-01-20T23:19:13.839Z,89.68
2023-01-20T23:21:42.489Z,86.40
2023-01-20T23:24:10.244Z,105.68
2023-01-20T23:26:39.431Z,91.50
2023-01-20T23:29:09.936Z,79.78
2023-01-20T23:31:36.789Z,97.35
2023-01-20T23:34:05.370Z,93.38
2023-01-20T23:36:34.906Z,82.82
2023-01-20T23:39:03.734Z,87.32
2023-01-20T23:41:33.909Z,85.95
2023-01-20T23:44:02.323Z,84.32
2023-01-20T23:46:29.228Z,78.60
2023-01-20T23:49:22.894Z,78.40
2023-01-20T23:51:57.855Z,78.47
2023-01-20T23:54:36.403Z,59.30
2023-01-20T23:57:05.154Z,80.93
2023-01-20T23:59:32.736Z,63.47
